Time,TemperatureF,DewpointF,PressureIn,WindDirection,WindDirectionDegrees,WindSpeedMPH,WindSpeedGustMPH,Humidity,HourlyPrecipIn,Conditions,Clouds,dailyrainin,SoftwareType,DateUTC
2013-04-20 00:15:00,66.8,63.0,29.66,South,187,6.0,22.0,87,0.00,,,0.00,weatherlink.com 1.10,2013-04-20 04:15:00,
2013-04-20 00:30:00,66.4,63.0,29.65,South,191,7.0,21.0,88,0.00,,,0.00,weatherlink.com 1.10,2013-04-20 04:30:00,
2013-04-20 00:45:00,66.0,63.0,29.66,West,271,6.0,16.0,89,0.01,,,0.01,weatherlink.com 1.10,2013-04-20 04:45:00,
2013-04-20 01:00:00,65.2,63.0,29.64,SE,136,4.0,12.0,91,0.04,,,0.04,weatherlink.com 1.10,2013-04-20 05:00:00,
2013-04-20 01:15:00,64.9,62.0,29.64,WSW,258,2.0,14.0,91,0.04,,,0.04,weatherlink.com 1.10,2013-04-20 05:15:00,
2013-04-20 01:30:00,64.6,62.0,29.64,WSW,258,5.0,10.0,91,0.06,,,0.06,weatherlink.com 1.10,2013-04-20 05:30:00,
2013-04-20 01:45:00,64.3,62.0,29.64,SSW,204,4.0,12.0,92,0.07,,,0.08,weatherlink.com 1.10,2013-04-20 05:45:00,
2013-04-20 02:00:00,63.9,62.0,29.63,SW,224,3.0,10.0,92,0.08,,,0.12,weatherlink.com 1.10,2013-04-20 06:00:00,
2013-04-20 02:15:00,63.6,62.0,29.63,WSW,250,2.0,10.0,93,0.11,,,0.15,weatherlink.com 1.10,2013-04-20 06:15:00,
2013-04-20 02:30:00,63.3,61.0,29.62,WSW,245,4.0,11.0,93,0.11,,,0.17,weatherlink.com 1.10,2013-04-20 06:30:00,
2013-04-20 02:45:00,63.1,61.0,29.61,South,186,3.0,7.0,93,0.09,,,0.17,weatherlink.com 1.10,2013-04-20 06:45:00,
2013-04-20 03:00:00,62.9,61.0,29.61,West,269,4.0,9.0,93,0.04,,,0.17,weatherlink.com 1.10,2013-04-20 07:00:00,
2013-04-20 03:15:00,62.6,61.0,29.60,WSW,246,4.0,7.0,93,0.02,,,0.17,weatherlink.com 1.10,2013-04-20 07:15:00,
2013-04-20 03:30:00,62.5,61.0,29.60,West,265,3.0,10.0,93,0.00,,,0.17,weatherlink.com 1.10,2013-04-20 07:30:00,
2013-04-20 03:45:00,62.5,61.0,29.60,SE,141,2.0,9.0,93,0.00,,,0.17,weatherlink.com 1.10,2013-04-20 07:45:00,
2013-04-20 04:00:00,62.4,60.0,29.60,WSW,253,3.0,9.0,93,0.01,,,0.18,weatherlink.com 1.10,2013-04-20 08:00:00,
2013-04-20 04:15:00,62.2,61.0,29.60,South,178,3.0,9.0,94,0.02,,,0.19,weatherlink.com 1.10,2013-04-20 08:15:00,
2013-04-20 04:30:00,61.2,58.0,29.63,NNW,340,8.0,11.0,90,0.11,,,0.28,weatherlink.com 1.10,2013-04-20 08:30:00,
2013-04-20 04:45:00,56.0,54.0,29.63,West,276,8.0,10.0,91,0.12,,,0.29,weatherlink.com 1.10,2013-04-20 08:45:00,
2013-04-20 05:00:00,55.2,53.0,29.65,SW,229,3.0,6.0,92,0.11,,,0.29,weatherlink.com 1.10,2013-04-20 09:00:00,
2013-04-20 05:15:00,54.7,53.0,29.66,SW,232,3.0,7.0,93,0.12,,,0.31,weatherlink.com 1.10,2013-04-20 09:15:00,
2013-04-20 05:30:00,54.3,52.0,29.66,WNW,289,4.0,9.0,93,0.08,,,0.36,weatherlink.com 1.10,2013-04-20 09:30:00,
2013-04-20 05:45:00,53.6,51.0,29.66,NE,44,3.0,6.0,92,0.09,,,0.38,weatherlink.com 1.10,2013-04-20 09:45:00,
2013-04-20 06:00:00,52.4,50.0,29.66,NW,316,1.0,7.0,92,0.11,,,0.40,weatherlink.com 1.10,2013-04-20 10:00:00,
2013-04-20 06:15:00,51.9,50.0,29.69,NW,323,5.0,9.0,92,0.12,,,0.43,weatherlink.com 1.10,2013-04-20 10:15:00,
2013-04-20 06:31:00,51.1,48.0,29.70,WNW,284,2.0,13.0,90,0.10,,,0.46,weatherlink.com 1.10,2013-04-20 10:31:00,
2013-04-20 06:46:00,50.6,48.0,29.72,WNW,295,4.0,9.0,91,0.10,,,0.48,weatherlink.com 1.10,2013-04-20 10:46:00,
2013-04-20 07:01:00,50.0,48.0,29.72,WNW,282,3.0,10.0,91,0.10,,,0.50,weatherlink.com 1.10,2013-04-20 11:01:00,
2013-04-20 07:16:00,49.2,47.0,29.75,NNW,333,5.0,11.0,90,0.09,,,0.52,weatherlink.com 1.10,2013-04-20 11:16:00,
2013-04-20 07:31:00,48.2,45.0,29.77,WSW,245,4.0,14.0,89,0.09,,,0.55,weatherlink.com 1.10,2013-04-20 11:31:00,
2013-04-20 07:46:00,47.6,44.0,29.76,West,264,4.0,9.0,88,0.09,,,0.57,weatherlink.com 1.10,2013-04-20 11:46:00,
2013-04-20 08:01:00,47.2,44.0,29.77,WNW,288,3.0,10.0,87,0.08,,,0.58,weatherlink.com 1.10,2013-04-20 12:01:00,
2013-04-20 08:16:00,46.9,43.0,29.79,NNW,332,2.0,12.0,87,0.07,,,0.60,weatherlink.com 1.10,2013-04-20 12:16:00,
2013-04-20 08:31:00,46.8,44.0,29.80,WNW,287,6.0,13.0,88,0.05,,,0.60,weatherlink.com 1.10,2013-04-20 12:31:00,
2013-04-20 08:46:00,47.1,44.0,29.80,WSW,255,4.0,10.0,87,0.03,,,0.60,weatherlink.com 1.10,2013-04-20 12:46:00,
2013-04-20 09:01:00,47.9,44.0,29.80,North,6,7.0,7.0,85,0.02,,,0.60,weatherlink.com 1.10,2013-04-20 13:01:00,
2013-04-20 09:16:00,48.7,43.0,29.80,West,278,1.0,8.0,81,0.00,,,0.60,weatherlink.com 1.10,2013-04-20 13:16:00,
2013-04-20 09:31:00,49.0,42.0,29.79,West,265,7.0,10.0,76,0.00,,,0.60,weatherlink.com 1.10,2013-04-20 13:31:00,
2013-04-20 09:46:00,49.1,42.0,29.80,NW,314,4.0,10.0,76,0.00,,,0.60,weatherlink.com 1.10,2013-04-20 13:46:00,
2013-04-20 10:01:00,49.4,42.0,29.81,NNW,328,1.0,10.0,76,0.00,,,0.60,weatherlink.com 1.10,2013-04-20 14:01:00,
2013-04-20 10:16:00,49.7,42.0,29.83,West,259,5.0,8.0,76,0.00,,,0.60,weatherlink.com 1.10,2013-04-20 14:16:00,
2013-04-20 10:31:00,49.9,43.0,29.84,WNW,285,3.0,9.0,77,0.00,,,0.60,weatherlink.com 1.10,2013-04-20 14:31:00,
2013-04-20 10:46:00,50.6,42.0,29.85,WSW,255,3.0,8.0,73,0.00,,,0.60,weatherlink.com 1.10,2013-04-20 14:46:00,
2013-04-20 11:01:00,51.5,40.0,29.84,West,277,6.0,14.0,66,0.00,,,0.60,weatherlink.com 1.10,2013-04-20 15:01:00,
2013-04-20 11:16:00,52.3,39.0,29.85,SW,236,4.0,10.0,62,0.00,,,0.60,weatherlink.com 1.10,2013-04-20 15:16:00,
2013-04-20 11:31:00,52.9,40.0,29.85,SW,232,3.0,12.0,61,0.00,,,0.60,weatherlink.com 1.10,2013-04-20 15:31:00,
2013-04-20 11:46:00,53.0,39.0,29.86,West,280,8.0,14.0,59,0.00,,,0.60,weatherlink.com 1.10,2013-04-20 15:46:00,
2013-04-20 12:01:00,53.8,39.0,29.86,West,275,2.0,15.0,57,0.00,,,0.60,weatherlink.com 1.10,2013-04-20 16:01:00,
2013-04-20 12:16:00,54.6,37.0,29.86,SW,217,4.0,13.0,52,0.00,,,0.60,weatherlink.com 1.10,2013-04-20 16:16:00,
2013-04-20 12:31:00,55.1,38.0,29.86,West,266,8.0,10.0,52,0.00,,,0.60,weatherlink.com 1.10,2013-04-20 16:31:00,
2013-04-20 12:46:00,55.7,37.0,29.86,WNW,283,12.0,12.0,49,0.00,,,0.60,weatherlink.com 1.10,2013-04-20 16:46:00,
2013-04-20 13:01:00,55.7,36.0,29.86,WNW,290,6.0,16.0,47,0.00,,,0.60,weatherlink.com 1.10,2013-04-20 17:01:00,
2013-04-20 13:16:00,56.4,36.0,29.86,West,269,4.0,16.0,47,0.00,,,0.60,weatherlink.com 1.10,2013-04-20 17:16:00,
2013-04-20 13:31:00,56.6,37.0,29.85,West,265,5.0,13.0,48,0.00,,,0.60,weatherlink.com 1.10,2013-04-20 17:31:00,
2013-04-20 13:47:00,56.9,36.0,29.86,WNW,297,6.0,13.0,46,0.00,,,0.60,weatherlink.com 1.10,2013-04-20 17:47:00,
2013-04-20 14:02:00,56.9,34.0,29.86,WNW,285,4.0,15.0,43,0.00,,,0.60,weatherlink.com 1.10,2013-04-20 18:02:00,
2013-04-20 14:17:00,57.2,35.0,29.86,NW,314,4.0,16.0,43,0.00,,,0.60,weatherlink.com 1.10,2013-04-20 18:17:00,
2013-04-20 14:32:00,56.9,34.0,29.87,SW,226,7.0,13.0,43,0.00,,,0.60,weatherlink.com 1.10,2013-04-20 18:32:00,
2013-04-20 14:47:00,56.9,34.0,29.88,WNW,288,6.0,15.0,43,0.00,,,0.60,weatherlink.com 1.10,2013-04-20 18:47:00,
2013-04-20 15:02:00,57.0,33.0,29.87,WNW,290,11.0,19.0,40,0.00,,,0.60,weatherlink.com 1.10,2013-04-20 19:02:00,
2013-04-20 15:17:00,56.5,32.0,29.89,West,270,12.0,14.0,39,0.00,,,0.60,weatherlink.com 1.10,2013-04-20 19:17:00,
2013-04-20 15:32:00,57.3,32.0,29.90,NNW,347,5.0,17.0,38,0.00,,,0.60,weatherlink.com 1.10,2013-04-20 19:32:00,
2013-04-20 15:47:00,56.5,32.0,29.90,West,280,9.0,13.0,39,0.00,,,0.60,weatherlink.com 1.10,2013-04-20 19:47:00,
2013-04-20 16:02:00,56.2,32.0,29.91,NE,34,5.0,13.0,40,0.00,,,0.60,weatherlink.com 1.10,2013-04-20 20:02:00,
2013-04-20 16:17:00,57.4,32.0,29.91,WSW,258,4.0,10.0,38,0.00,,,0.60,weatherlink.com 1.10,2013-04-20 20:17:00,
2013-04-20 16:32:00,56.6,32.0,29.92,West,278,6.0,14.0,39,0.00,,,0.60,weatherlink.com 1.10,2013-04-20 20:32:00,
2013-04-20 16:47:00,56.6,32.0,29.93,West,281,6.0,14.0,39,0.00,,,0.60,weatherlink.com 1.10,2013-04-20 20:47:00,
2013-04-20 17:02:00,56.8,33.0,29.94,WNW,293,5.0,9.0,40,0.00,,,0.60,weatherlink.com 1.10,2013-04-20 21:02:00,
2013-04-20 17:17:00,56.4,32.0,29.94,WNW,291,2.0,13.0,39,0.00,,,0.60,weatherlink.com 1.10,2013-04-20 21:17:00,
2013-04-20 17:32:00,57.2,32.0,29.94,SW,231,7.0,10.0,38,0.00,,,0.60,weatherlink.com 1.10,2013-04-20 21:32:00,
2013-04-20 17:47:00,57.5,31.0,29.95,West,276,3.0,9.0,37,0.00,,,0.60,weatherlink.com 1.10,2013-04-20 21:47:00,
2013-04-20 18:02:00,57.1,31.0,29.96,WNW,285,0.0,9.0,37,0.00,,,0.60,weatherlink.com 1.10,2013-04-20 22:02:00,
2013-04-20 18:17:00,57.0,31.0,29.97,WNW,287,1.0,7.0,37,0.00,,,0.60,weatherlink.com 1.10,2013-04-20 22:17:00,
2013-04-20 18:32:00,56.8,30.0,29.97,West,274,2.0,8.0,36,0.00,,,0.60,weatherlink.com 1.10,2013-04-20 22:32:00,
2013-04-20 18:47:00,56.6,30.0,29.98,West,274,4.0,12.0,36,0.00,,,0.60,weatherlink.com 1.10,2013-04-20 22:47:00,
2013-04-20 19:02:00,56.3,31.0,29.99,NNE,18,3.0,6.0,38,0.00,,,0.60,weatherlink.com 1.10,2013-04-20 23:02:00,
2013-04-20 19:17:00,55.7,30.0,30.00,NW,319,1.0,9.0,37,0.00,,,0.60,weatherlink.com 1.10,2013-04-20 23:17:00,
2013-04-20 19:32:00,54.7,30.0,30.01,North,354,3.0,7.0,39,0.00,,,0.60,weatherlink.com 1.10,2013-04-20 23:32:00,
2013-04-20 19:47:00,54.1,30.0,30.03,NNW,333,2.0,6.0,40,0.00,,,0.60,weatherlink.com 1.10,2013-04-20 23:47:00,
2013-04-20 20:02:00,53.5,30.0,30.04,WNW,301,1.0,8.0,40,0.00,,,0.60,weatherlink.com 1.10,2013-04-21 00:02:00,
2013-04-20 20:17:00,52.9,30.0,30.05,WNW,287,1.0,6.0,41,0.00,,,0.60,weatherlink.com 1.10,2013-04-21 00:17:00,
2013-04-20 20:32:00,52.4,29.0,30.06,SW,217,4.0,8.0,41,0.00,,,0.60,weatherlink.com 1.10,2013-04-21 00:32:00,
2013-04-20 20:47:00,51.9,29.0,30.08,NNW,344,2.0,5.0,42,0.00,,,0.60,weatherlink.com 1.10,2013-04-21 00:47:00,
2013-04-20 21:03:00,51.4,29.0,30.10,WNW,297,1.0,4.0,43,0.00,,,0.60,weatherlink.com 1.10,2013-04-21 01:03:00,
2013-04-20 21:18:00,51.0,28.0,30.11,WNW,291,5.0,8.0,42,0.00,,,0.60,weatherlink.com 1.10,2013-04-21 01:18:00,
2013-04-20 21:33:00,50.6,27.0,30.12,West,264,3.0,8.0,41,0.00,,,0.60,weatherlink.com 1.10,2013-04-21 01:33:00,
2013-04-20 21:48:00,50.1,28.0,30.13,NW,321,1.0,4.0,42,0.00,,,0.60,weatherlink.com 1.10,2013-04-21 01:48:00,
2013-04-20 22:03:00,49.8,27.0,30.14,West,280,1.0,6.0,41,0.00,,,0.60,weatherlink.com 1.10,2013-04-21 02:03:00,
2013-04-20 22:18:00,49.3,27.0,30.15,NNE,30,4.0,6.0,42,0.00,,,0.60,weatherlink.com 1.10,2013-04-21 02:18:00,
2013-04-20 22:33:00,48.8,27.0,30.16,NW,306,1.0,8.0,43,0.00,,,0.60,weatherlink.com 1.10,2013-04-21 02:33:00,
2013-04-20 22:48:00,48.2,27.0,30.17,NW,318,6.0,8.0,44,0.00,,,0.60,weatherlink.com 1.10,2013-04-21 02:48:00,
2013-04-20 23:03:00,47.5,25.0,30.17,WNW,286,2.0,15.0,42,0.00,,,0.60,weatherlink.com 1.10,2013-04-21 03:03:00,
2013-04-20 23:18:00,46.8,25.0,30.18,NNE,26,3.0,10.0,43,0.00,,,0.60,weatherlink.com 1.10,2013-04-21 03:18:00,
2013-04-20 23:33:00,46.2,25.0,30.19,NNW,338,3.0,11.0,43,0.00,,,0.60,weatherlink.com 1.10,2013-04-21 03:33:00,
2013-04-20 23:48:00,45.7,24.0,30.20,WNW,301,4.0,13.0,43,0.00,,,0.60,weatherlink.com 1.10,2013-04-21 03:48:00,